Time;durP1;ratioP1;P1;durP2;ratioP2;P2;SDS_P1;SDS_P2;PMS_P1;PMS_P2;Temp;Humidity;BMP_temperature;BMP_pressure;BME280_temperature;BME280_humidity;BME280_pressure;Samples;Min_cycle;Max_cycle;Signal;HPM_P1;HPM_P2
2022/03/18 00:01:12;;;;;;;;;18.00;16.75;;;;;7.32;65.33;103450.88;5018343;28;45454;-67
2022/03/18 00:03:37;;;;;;;;;19.75;18.00;;;;;7.39;65.29;103446.97;5020654;28;45343;-68
2022/03/18 00:06:03;;;;;;;;;22.00;17.25;;;;;7.39;65.23;103441.56;5020085;28;45381;-67
2022/03/18 00:08:28;;;;;;;;;18.50;17.00;;;;;7.37;64.83;103459.72;5019355;28;47169;-68
2022/03/18 00:10:55;;;;;;;;;19.33;17.67;;;;;7.28;64.57;103450.13;5017585;28;45460;-68
2022/03/18 00:13:21;;;;;;;;;16.67;15.00;;;;;7.32;64.75;103461.69;5021843;28;45469;-68
2022/03/18 00:15:46;;;;;;;;;19.75;16.25;;;;;7.27;64.71;103458.31;5017390;28;45810;-67
2022/03/18 00:18:12;;;;;;;;;21.50;18.50;;;;;7.26;65.12;103451.13;5022166;28;45466;-68
2022/03/18 00:20:37;;;;;;;;;21.25;16.25;;;;;7.17;64.92;103446.97;5014597;28;45277;-68
2022/03/18 00:23:03;;;;;;;;;19.33;16.33;;;;;7.13;65.11;103450.75;5019589;28;45354;-67
2022/03/18 00:25:29;;;;;;;;;20.50;19.75;;;;;7.12;65.14;103445.38;5017426;28;45370;-67
2022/03/18 00:27:55;;;;;;;;;16.50;16.50;;;;;7.07;65.69;103447.41;5020412;28;45522;-68
2022/03/18 00:30:20;;;;;;;;;21.25;19.00;;;;;7.05;65.53;103452.84;5016936;28;45941;-68
2022/03/18 00:32:48;;;;;;;;;23.25;22.00;;;;;7.03;65.62;103460.13;5022218;28;45349;-68
2022/03/18 00:35:14;;;;;;;;;21.50;18.50;;;;;6.99;66.00;103461.22;5019385;28;45544;-68
2022/03/18 00:37:40;;;;;;;;;30.75;20.50;;;;;6.97;66.13;103468.50;5021804;28;45565;-68
2022/03/18 00:40:08;;;;;;;;;21.25;16.50;;;;;6.96;66.12;103470.31;5013741;28;45427;-68
2022/03/18 00:42:33;;;;;;;;;21.50;18.50;;;;;6.94;66.58;103466.78;5021020;28;45319;-68
2022/03/18 00:44:59;;;;;;;;;18.75;18.00;;;;;6.92;66.41;103455.16;5022424;28;45864;-68
2022/03/18 00:52:53;;;;;;;;;22.00;20.75;;;;;6.97;66.27;103468.50;5016405;28;45427;-68
2022/03/18 00:55:18;;;;;;;;;23.00;20.75;;;;;6.87;66.45;103459.84;5018634;28;45292;-68
2022/03/18 00:57:44;;;;;;;;;17.00;15.75;;;;;6.92;66.74;103462.38;5025354;28;45952;-68
2022/03/18 01:00:10;;;;;;;;;22.75;19.50;;;;;6.89;66.87;103468.78;5020403;28;45240;-68
2022/03/18 01:02:35;;;;;;;;;18.75;16.50;;;;;6.78;66.65;103452.09;5025528;28;45302;-68
2022/03/18 01:05:01;;;;;;;;;20.25;16.50;;;;;6.71;66.86;103447.88;5020985;28;45307;-68
2022/03/18 01:07:26;;;;;;;;;21.75;18.00;;;;;6.78;67.46;103462.03;5025270;28;45268;-68
2022/03/18 01:09:52;;;;;;;;;23.25;20.00;;;;;6.76;67.41;103464.78;5018510;28;45334;-68
2022/03/18 01:12:17;;;;;;;;;31.50;21.25;;;;;6.71;67.54;103460.50;5025424;28;45370;-68
2022/03/18 01:14:43;;;;;;;;;22.50;21.50;;;;;6.67;68.02;103464.25;5015168;28;45410;-68
2022/03/18 01:17:08;;;;;;;;;27.75;23.00;;;;;6.68;68.19;103474.09;5014104;28;47390;-68
2022/03/18 01:19:34;;;;;;;;;22.50;21.50;;;;;6.60;68.59;103455.47;5017248;28;45498;-68
2022/03/18 01:21:59;;;;;;;;;26.75;25.25;;;;;6.64;68.22;103457.16;5027838;28;45297;-68
2022/03/18 01:24:24;;;;;;;;;14.25;13.50;;;;;6.49;68.72;103449.63;5018652;28;45718;-68
2022/03/18 01:26:50;;;;;;;;;25.25;21.25;;;;;6.52;68.75;103468.38;5020115;28;46977;-68
2022/03/18 01:29:15;;;;;;;;;25.50;24.25;;;;;6.54;69.12;103471.91;5019043;28;45763;-69
2022/03/18 01:31:42;;;;;;;;;23.50;19.50;;;;;6.48;69.01;103466.75;5022857;28;45381;-68
2022/03/18 01:34:07;;;;;;;;;24.00;18.75;;;;;6.52;69.16;103473.78;5023490;28;45268;-68
2022/03/18 01:36:33;;;;;;;;;35.00;29.00;;;;;6.51;69.45;103474.72;5016171;28;45298;-68
2022/03/18 01:38:59;;;;;;;;;26.75;21.00;;;;;6.51;69.81;103480.13;5021279;28;45948;-68
2022/03/18 01:41:24;;;;;;;;;21.75;19.25;;;;;6.46;69.99;103474.03;5017558;28;45241;-69
2022/03/18 01:43:50;;;;;;;;;27.50;27.50;;;;;6.45;70.09;103474.94;5021712;28;45281;-68
2022/03/18 01:46:17;;;;;;;;;31.00;26.00;;;;;6.43;70.04;103477.69;5019743;28;45470;-68
2022/03/18 01:48:43;;;;;;;;;27.25;25.00;;;;;6.43;70.15;103484.94;5037779;28;45332;-68
2022/03/18 01:51:08;;;;;;;;;39.25;32.75;;;;;6.41;70.56;103486.81;5018327;28;45316;-67
2022/03/18 01:53:36;;;;;;;;;32.50;31.50;;;;;6.38;70.78;103485.09;5037668;28;45569;-67
2022/03/18 01:56:01;;;;;;;;;32.25;31.25;;;;;6.38;70.81;103485.09;5017382;28;47097;-67
2022/03/18 01:58:27;;;;;;;;;35.50;31.25;;;;;6.42;70.79;103481.38;5038362;28;45232;-68
2022/03/18 02:00:52;;;;;;;;;33.50;31.25;;;;;6.39;71.00;103480.56;5019397;28;45426;-67
2022/03/18 02:03:18;;;;;;;;;37.00;34.00;;;;;6.26;71.29;103463.94;5024595;28;45464;-68
2022/03/18 02:05:44;;;;;;;;;35.00;31.25;;;;;6.35;71.20;103477.13;5019910;28;48044;-69
2022/03/18 02:08:09;;;;;;;;;30.50;23.25;;;;;6.35;71.40;103481.63;5022788;28;46419;-69
2022/03/18 02:10:35;;;;;;;;;39.25;29.00;;;;;6.33;71.57;103489.78;5017752;28;45494;-67
2022/03/18 02:13:01;;;;;;;;;39.25;30.75;;;;;6.30;71.92;103483.59;5024916;28;45410;-68
2022/03/18 02:15:26;;;;;;;;;39.25;37.50;;;;;6.33;71.61;103483.50;5019086;28;45447;-67
2022/03/18 02:17:52;;;;;;;;;42.00;29.75;;;;;6.36;71.66;103488.78;5024271;28;45244;-68
2022/03/18 02:20:17;;;;;;;;;41.25;35.25;;;;;6.36;71.48;103492.34;5020005;28;45358;-68
2022/03/18 02:22:43;;;;;;;;;35.50;27.00;;;;;6.35;71.60;103482.53;5021864;28;45241;-68
2022/03/18 02:25:12;;;;;;;;;38.25;33.00;;;;;6.32;71.67;103493.41;5020456;28;45524;-67
2022/03/18 02:27:37;;;;;;;;;39.75;36.50;;;;;6.31;71.45;103485.38;5022545;28;46131;-67
2022/03/18 02:30:08;;;;;;;;;40.75;35.75;;;;;6.33;71.54;103480.81;5018520;28;45255;-68
2022/03/18 02:32:35;;;;;;;;;42.00;33.75;;;;;6.32;71.11;103481.72;5020845;28;45473;-68
2022/03/18 02:35:01;;;;;;;;;40.75;36.00;;;;;6.28;71.46;103480.97;5016394;28;45461;-67
2022/03/18 02:37:27;;;;;;;;;42.50;35.75;;;;;6.26;71.36;103469.34;5021638;28;45469;-68
2022/03/18 02:39:52;;;;;;;;;33.50;29.50;;;;;6.24;71.78;103469.38;5018487;28;47711;-68
2022/03/18 02:42:18;;;;;;;;;46.50;37.25;;;;;6.18;71.43;103469.59;5021759;28;45260;-68
2022/03/18 02:44:44;;;;;;;;;40.50;34.50;;;;;6.18;71.79;103472.31;5016318;28;46981;-67
2022/03/18 02:47:09;;;;;;;;;46.50;40.25;;;;;6.22;71.58;103475.75;5021017;28;45323;-68
2022/03/18 02:49:35;;;;;;;;;42.00;38.25;;;;;6.18;71.45;103475.00;5017678;28;45375;-67
2022/03/18 02:52:00;;;;;;;;;37.50;33.75;;;;;6.19;72.01;103475.88;5023970;28;45644;-68
2022/03/18 02:54:25;;;;;;;;;43.25;35.00;;;;;6.22;71.76;103481.16;5021190;28;46163;-68
2022/03/18 02:56:51;;;;;;;;;43.50;36.50;;;;;6.16;72.04;103487.66;5018874;28;45434;-67
2022/03/18 02:59:16;;;;;;;;;45.25;38.00;;;;;6.12;72.14;103486.03;5008476;28;46106;-68
2022/03/18 03:01:42;;;;;;;;;46.50;37.75;;;;;6.07;72.09;103487.97;5023279;28;45519;-67
2022/03/18 03:04:07;;;;;;;;;43.00;36.50;;;;;6.07;72.62;103492.50;5019105;28;46131;-71
2022/03/18 03:09:17;;;;;;;;;36.25;31.50;;;;;6.11;71.84;103477.97;5017873;28;45485;-68
2022/03/18 03:11:44;;;;;;;;;44.50;37.00;;;;;6.08;71.89;103486.16;5018329;28;45541;-67
2022/03/18 03:14:09;;;;;;;;;49.00;39.50;;;;;6.06;72.20;103483.53;5018059;28;46394;-67
2022/03/18 03:16:35;;;;;;;;;49.25;39.00;;;;;6.06;72.44;103483.53;5020991;28;45345;-67
2022/03/18 03:19:03;;;;;;;;;51.50;41.25;;;;;6.05;72.59;103484.47;5035325;28;45370;-67
2022/03/18 03:21:29;;;;;;;;;45.75;37.75;;;;;6.08;72.38;103502.34;5018507;28;45410;-67
2022/03/18 03:23:55;;;;;;;;;50.00;40.00;;;;;6.02;72.30;103498.06;5013354;28;45506;-67
2022/03/18 03:26:21;;;;;;;;;45.50;34.25;;;;;5.94;72.95;103505.53;5021707;28;45236;-67
2022/03/18 03:28:46;;;;;;;;;41.25;32.25;;;;;5.94;72.91;103512.75;5019326;28;45341;-67
2022/03/18 03:31:11;;;;;;;;;43.75;35.00;;;;;5.91;72.91;103502.94;5022030;28;45540;-67
2022/03/18 03:33:37;;;;;;;;;45.00;34.75;;;;;5.91;72.71;103513.75;5018961;28;48215;-67
2022/03/18 03:36:03;;;;;;;;;38.00;31.50;;;;;5.89;72.16;103510.19;5009436;28;46073;-68
2022/03/18 03:38:29;;;;;;;;;30.75;23.75;;;;;5.87;72.48;103501.25;5015489;28;45411;-68
2022/03/18 03:40:54;;;;;;;;;41.50;34.00;;;;;5.84;71.88;103502.22;5018240;28;45248;-68
2022/03/18 03:43:19;;;;;;;;;34.00;28.00;;;;;5.79;72.19;103504.19;5022645;28;46330;-68
2022/03/18 03:45:45;;;;;;;;;32.50;28.75;;;;;5.79;72.14;103508.69;5030671;28;45398;-67
2022/03/18 03:48:11;;;;;;;;;28.00;27.75;;;;;5.82;72.18;103509.50;5021757;28;45487;-67
2022/03/18 03:50:37;;;;;;;;;35.50;30.25;;;;;5.81;71.80;103502.34;5016078;28;45513;-68
2022/03/18 03:53:03;;;;;;;;;33.75;28.25;;;;;5.81;71.63;103505.03;5018190;28;47377;-67
2022/03/18 03:55:29;;;;;;;;;36.25;31.00;;;;;5.80;71.80;103507.78;5019630;28;45293;-68
2022/03/18 03:57:55;;;;;;;;;31.00;30.25;;;;;5.81;71.56;103512.22;5003945;28;45446;-68
2022/03/18 04:00:20;;;;;;;;;35.00;31.25;;;;;5.74;71.50;103510.66;5015739;28;45345;-67
2022/03/18 04:02:46;;;;;;;;;29.25;26.50;;;;;5.70;71.71;103523.38;5022701;28;46267;-68
2022/03/18 04:05:12;;;;;;;;;37.00;32.00;;;;;5.66;71.55;103516.31;5018179;28;45429;-68
2022/03/18 04:07:39;;;;;;;;;40.75;36.75;;;;;5.69;71.80;103537.81;5021353;28;45449;-68
2022/03/18 04:10:06;;;;;;;;;43.25;34.25;;;;;5.68;71.63;103537.84;5014995;28;45648;-69
2022/03/18 04:12:34;;;;;;;;;36.25;28.75;;;;;5.62;71.93;103532.66;5023410;28;47311;-68
2022/03/18 04:15:04;;;;;;;;;40.75;31.75;;;;;5.57;71.82;103519.28;5019406;28;45454;-68
2022/03/18 04:17:46;;;;;;;;;34.75;33.25;;;;;5.61;71.94;103523.69;5020565;28;45355;-68
2022/03/18 04:20:18;;;;;;;;;34.25;31.75;;;;;5.60;71.90;103524.59;5020851;28;45490;-68
2022/03/18 04:22:44;;;;;;;;;42.00;37.75;;;;;5.55;72.19;103536.47;5024678;28;45395;-68
2022/03/18 04:25:10;;;;;;;;;32.25;25.25;;;;;5.46;72.57;103543.91;5022191;28;45545;-68
2022/03/18 04:27:37;;;;;;;;;36.75;33.25;;;;;5.47;72.96;103548.38;5022979;28;45276;-68
2022/03/18 04:30:05;;;;;;;;;34.50;32.75;;;;;5.47;72.62;103555.59;5022486;28;45541;-68
2022/03/18 04:32:30;;;;;;;;;35.50;33.75;;;;;5.40;73.25;103564.81;5025038;28;45394;-68
2022/03/18 04:34:55;;;;;;;;;42.25;33.50;;;;;5.31;73.16;103559.69;5019245;28;45437;-68
2022/03/18 04:37:21;;;;;;;;;35.00;32.25;;;;;5.26;73.14;103557.09;5022072;28;45284;-68
2022/03/18 04:39:46;;;;;;;;;38.00;31.00;;;;;5.32;72.80;103566.84;5020623;28;45474;-68
2022/03/18 04:42:12;;;;;;;;;37.25;31.25;;;;;5.31;72.57;103559.69;5021762;28;45857;-68
2022/03/18 04:44:38;;;;;;;;;29.50;27.25;;;;;5.26;72.19;103573.28;5020181;28;45390;-68
2022/03/18 04:47:04;;;;;;;;;20.25;20.25;;;;;5.28;72.28;103570.53;5025546;28;45438;-68
2022/03/18 04:49:29;;;;;;;;;34.50;26.50;;;;;5.29;71.94;103566.91;5019697;28;45277;-68
2022/03/18 04:51:55;;;;;;;;;32.25;29.50;;;;;5.33;71.63;103564.06;5023882;28;46271;-68
2022/03/18 04:54:20;;;;;;;;;30.75;29.50;;;;;5.37;71.24;103565.75;5019350;28;45366;-68
2022/03/18 04:59:29;;;;;;;;;30.25;27.50;;;;;5.26;71.38;103567.88;5019419;28;45276;-67
2022/03/18 05:01:55;;;;;;;;;26.75;22.75;;;;;5.27;71.33;103563.38;5023147;28;45921;-68
2022/03/18 05:04:20;;;;;;;;;34.75;29.50;;;;;5.32;71.50;103567.72;5021654;28;45390;-68
2022/03/18 05:06:46;;;;;;;;;51.75;42.00;;;;;5.21;71.38;103569.84;5025094;28;45303;-68
2022/03/18 05:09:12;;;;;;;;;34.00;30.00;;;;;5.20;71.54;103576.16;5020700;28;45624;-68
2022/03/18 05:11:37;;;;;;;;;35.00;30.00;;;;;5.24;71.18;103575.16;5018908;28;45429;-68
2022/03/18 05:14:03;;;;;;;;;32.75;26.00;;;;;5.28;71.21;103581.31;5018287;28;45335;-68
2022/03/18 05:16:28;;;;;;;;;29.75;27.75;;;;;5.31;70.61;103590.22;5031912;28;45338;-68
2022/03/18 05:18:54;;;;;;;;;38.25;29.50;;;;;5.21;70.61;103583.31;5016851;28;45520;-68
2022/03/18 05:21:22;;;;;;;;;36.75;30.25;;;;;5.24;70.26;103585.06;5020730;28;46460;-68
2022/03/18 05:23:47;;;;;;;;;31.25;25.50;;;;;5.15;70.24;103594.28;5022440;28;45532;-68
2022/03/18 05:26:13;;;;;;;;;33.50;28.75;;;;;5.16;70.12;103593.34;5020823;28;45343;-68
2022/03/18 05:28:39;;;;;;;;;30.75;25.00;;;;;5.24;70.45;103591.31;5023465;28;45212;-68
2022/03/18 05:31:05;;;;;;;;;25.25;23.00;;;;;5.21;70.18;103588.72;5017294;28;45655;-68
2022/03/18 05:33:30;;;;;;;;;37.00;27.75;;;;;5.22;70.18;103593.19;5023249;28;45186;-67
2022/03/18 05:35:56;;;;;;;;;32.00;27.50;;;;;5.21;70.18;103601.28;5023151;28;45355;-67
2022/03/18 05:38:21;;;;;;;;;27.00;24.50;;;;;5.22;69.94;103611.16;5024118;28;45245;-68
2022/03/18 05:40:46;;;;;;;;;33.25;23.50;;;;;5.29;70.12;103602.84;5022966;28;46243;-67
2022/03/18 05:43:13;;;;;;;;;27.75;24.50;;;;;5.28;69.59;103594.81;5036551;28;45382;-69
2022/03/18 05:45:39;;;;;;;;;26.75;23.50;;;;;5.27;69.46;103604.69;5015550;28;45517;-68
2022/03/18 05:48:06;;;;;;;;;31.50;28.25;;;;;5.25;69.56;103603.88;5024968;28;45439;-67
2022/03/18 05:50:32;;;;;;;;;30.25;28.25;;;;;5.24;69.78;103599.41;5017678;28;46405;-68
2022/03/18 05:52:58;;;;;;;;;34.50;30.75;;;;;5.28;69.55;103598.38;5031007;28;45398;-68
2022/03/18 05:55:24;;;;;;;;;30.00;27.00;;;;;5.28;69.19;103593.00;5016314;28;45529;-68
2022/03/18 05:57:51;;;;;;;;;34.25;28.50;;;;;5.20;69.11;103600.41;5023211;28;45469;-68
2022/03/18 06:00:17;;;;;;;;;31.75;26.25;;;;;5.29;68.90;103602.84;5021611;28;46982;-68
2022/03/18 06:02:42;;;;;;;;;33.00;30.50;;;;;5.26;68.44;103605.63;5017015;28;45357;-67
2022/03/18 06:05:09;;;;;;;;;28.25;27.25;;;;;5.30;68.81;103612.72;5019983;28;45512;-68
2022/03/18 06:07:37;;;;;;;;;28.00;25.50;;;;;5.35;68.62;103613.44;5024468;28;45394;-68
2022/03/18 06:12:46;;;;;;;;;30.50;27.25;;;;;5.41;68.14;103615.97;5023683;28;45370;-68
2022/03/18 06:15:11;;;;;;;;;28.75;25.75;;;;;5.42;67.83;103606.94;5017931;28;45402;-68
2022/03/18 06:17:37;;;;;;;;;33.75;24.50;;;;;5.39;67.96;103612.44;5023779;28;45433;-67
2022/03/18 06:20:02;;;;;;;;;28.75;26.50;;;;;5.39;68.14;103616.94;5014290;28;46900;-68
2022/03/18 06:22:29;;;;;;;;;34.25;28.75;;;;;5.35;68.35;103612.56;5013252;28;45288;-68
2022/03/18 06:24:54;;;;;;;;;28.25;22.00;;;;;5.36;68.12;103612.53;5015508;28;45309;-69
2022/03/18 06:27:19;;;;;;;;;21.75;15.75;;;;;5.28;67.87;103617.25;5017808;28;45547;-69
2022/03/18 06:29:45;;;;;;;;;32.75;28.50;;;;;5.36;68.32;103623.31;5018385;28;46364;-68
2022/03/18 06:32:11;;;;;;;;;30.25;28.25;;;;;5.28;68.12;103627.16;5017386;28;45233;-69
2022/03/18 06:34:37;;;;;;;;;39.75;33.00;;;;;5.31;67.92;103621.69;5018092;28;45363;-69
2022/03/18 06:37:02;;;;;;;;;23.25;22.00;;;;;5.34;67.70;103625.16;5016169;28;45447;-69
2022/03/18 06:39:28;;;;;;;;;26.50;23.50;;;;;5.40;67.48;103627.69;5020826;28;45421;-70
2022/03/18 06:41:54;;;;;;;;;34.25;31.00;;;;;5.44;67.50;103623.97;5016399;28;45382;-69
2022/03/18 06:44:20;;;;;;;;;32.00;27.75;;;;;5.49;67.75;103619.31;5007257;28;45561;-69
2022/03/18 06:46:45;;;;;;;;;34.50;28.00;;;;;5.56;67.38;103613.72;5022750;28;45382;-69
2022/03/18 06:49:13;;;;;;;;;36.00;29.25;;;;;5.56;67.18;103611.03;5019009;28;45262;-69
2022/03/18 06:51:38;;;;;;;;;39.25;31.25;;;;;5.61;67.25;103622.59;5021297;28;45410;-69
2022/03/18 06:54:04;;;;;;;;;38.50;32.00;;;;;5.54;67.20;103612.91;5019502;28;45331;-68
2022/03/18 06:56:30;;;;;;;;;33.50;29.25;;;;;5.63;67.43;103626.97;5020167;28;45388;-67
2022/03/18 06:58:57;;;;;;;;;28.00;27.25;;;;;5.68;67.11;103634.97;5020422;28;45358;-68
2022/03/18 07:01:23;;;;;;;;;32.50;29.25;;;;;5.61;66.83;103627.97;5017164;28;45981;-68
2022/03/18 07:03:48;;;;;;;;;25.25;23.25;;;;;5.65;66.90;103630.53;5020710;28;45245;-68
2022/03/18 07:06:14;;;;;;;;;29.50;24.50;;;;;5.66;67.20;103631.41;5021231;28;45390;-68
2022/03/18 07:08:40;;;;;;;;;35.75;30.00;;;;;5.72;66.85;103633.91;5020661;28;45680;-68
2022/03/18 07:11:05;;;;;;;;;35.50;30.75;;;;;5.75;66.80;103631.13;5014566;28;45381;-68
2022/03/18 07:13:31;;;;;;;;;37.25;29.75;;;;;5.71;66.93;103616.84;5020017;28;45383;-68
2022/03/18 07:17:54;;;;;;;;;39.00;32.50;;;;;5.91;66.92;103623.50;5016228;28;45351;-68
2022/03/18 07:18:42;;;;;;;;;35.25;31.50;;;;;6.03;66.43;103633.88;5020785;28;45538;-68
2022/03/18 07:21:08;;;;;;;;;36.50;30.50;;;;;6.05;65.59;103630.22;5017925;28;45226;-67
2022/03/18 07:23:33;;;;;;;;;39.50;34.75;;;;;6.22;65.39;103629.66;5020168;28;45323;-68
2022/03/18 07:25:58;;;;;;;;;37.00;33.00;;;;;6.70;65.38;103628.94;5018290;28;45582;-69
2022/03/18 07:28:24;;;;;;;;;33.00;31.75;;;;;6.98;63.99;103633.31;5019374;28;48084;-68
2022/03/18 07:30:49;;;;;;;;;30.50;29.00;;;;;7.10;63.65;103618.47;5010335;28;45206;-69
2022/03/18 07:33:15;;;;;;;;;30.75;27.00;;;;;7.21;63.02;103618.09;5020088;28;45406;-69
2022/03/18 07:35:42;;;;;;;;;38.00;31.00;;;;;7.22;62.42;103611.75;5010276;28;45222;-69
2022/03/18 07:38:09;;;;;;;;;31.00;30.75;;;;;7.29;62.25;103619.56;5021387;28;45479;-67
2022/03/18 07:40:38;;;;;;;;;32.25;29.50;;;;;7.41;62.10;103615.50;5019225;28;46015;-68
2022/03/18 07:43:05;;;;;;;;;31.75;30.75;;;;;7.45;62.09;103611.75;5022489;28;45304;-68
2022/03/18 07:45:32;;;;;;;;;33.00;30.50;;;;;7.61;61.66;103618.31;5014956;28;45524;-69
2022/03/18 07:48:03;;;;;;;;;33.75;28.00;;;;;7.62;60.95;103616.50;5027147;28;46984;-68
2022/03/18 07:50:32;;;;;;;;;32.75;29.00;;;;;7.66;61.26;103627.16;5012689;28;45224;-68
2022/03/18 07:53:00;;;;;;;;;30.25;29.50;;;;;7.69;60.68;103635.16;5011784;28;45394;-68
2022/03/18 07:55:28;;;;;;;;;33.00;30.00;;;;;7.81;60.73;103634.69;5015026;28;45252;-68
2022/03/18 07:57:55;;;;;;;;;36.75;30.50;;;;;7.95;59.53;103631.44;5017200;28;48017;-68
2022/03/18 08:00:21;;;;;;;;;35.75;32.25;;;;;8.09;59.96;103639.00;5016815;28;45159;-68
2022/03/18 08:02:48;;;;;;;;;32.50;22.75;;;;;8.36;60.00;103635.19;5022137;28;45511;-69
2022/03/18 08:05:15;;;;;;;;;24.00;17.75;;;;;8.59;60.24;103615.25;5018697;28;45419;-68
2022/03/18 08:07:41;;;;;;;;;26.00;25.50;;;;;8.97;58.47;103638.88;5021812;28;46422;-68
2022/03/18 08:10:09;;;;;;;;;32.50;30.75;;;;;9.10;57.00;103638.31;5011731;28;45474;-68
2022/03/18 08:12:35;;;;;;;;;31.25;23.50;;;;;9.46;57.84;103633.94;5015375;28;45336;-68
2022/03/18 08:15:10;;;;;;;;;29.00;26.50;;;;;9.84;56.69;103637.56;5013241;28;45611;-69
2022/03/18 08:17:40;;;;;;;;;23.75;22.00;;;;;10.22;55.69;103629.41;5017395;28;47507;-68
2022/03/18 08:20:12;;;;;;;;;32.00;29.75;;;;;10.27;53.48;103627.34;5018484;28;45288;-69
2022/03/18 08:22:38;;;;;;;;;26.00;25.00;;;;;10.37;54.01;103639.53;5020286;28;45358;-68
2022/03/18 08:25:05;;;;;;;;;26.75;22.75;;;;;10.72;54.49;103646.75;5019849;28;45709;-69
2022/03/18 08:27:30;;;;;;;;;29.00;27.00;;;;;11.00;52.90;103645.31;5019249;28;47602;-69
2022/03/18 08:29:59;;;;;;;;;19.67;18.67;;;;;11.04;52.99;103641.47;5016067;28;45581;-68
2022/03/18 08:32:26;;;;;;;;;30.00;27.00;;;;;11.38;51.94;103646.88;5017783;28;46501;-68
2022/03/18 08:34:51;;;;;;;;;23.50;20.25;;;;;11.49;50.33;103659.91;5016596;28;45330;-68
2022/03/18 08:37:56;;;;;;;;;30.75;27.00;;;;;11.47;49.03;103651.81;5014807;28;46968;-69
2022/03/18 08:40:03;;;;;;;;;28.50;26.25;;;;;11.80;49.89;103650.94;5015194;28;45245;-69
2022/03/18 08:42:28;;;;;;;;;22.00;19.67;;;;;11.41;48.56;103646.69;5016819;28;45439;-69
2022/03/18 08:44:53;;;;;;;;;27.67;22.33;;;;;11.57;48.80;103647.63;5012615;28;45362;-69
2022/03/18 08:47:19;;;;;;;;;26.75;26.75;;;;;11.69;48.19;103646.94;5021815;28;46696;-69
2022/03/18 08:49:44;;;;;;;;;21.00;20.00;;;;;12.01;48.14;103637.00;5015433;28;45677;-68
2022/03/18 08:52:09;;;;;;;;;29.25;24.75;;;;;12.00;47.19;103631.63;5017217;28;45406;-66
2022/03/18 08:54:35;;;;;;;;;20.33;20.33;;;;;12.14;46.50;103634.44;5005697;28;45506;-69
2022/03/18 08:57:00;;;;;;;;;24.00;21.67;;;;;12.28;46.50;103639.97;5021835;28;46013;-69
2022/03/18 08:59:26;;;;;;;;;20.33;19.33;;;;;12.54;45.78;103624.81;5015766;28;45319;-69
2022/03/18 09:01:51;;;;;;;;;27.33;25.67;;;;;12.76;44.84;103629.88;5020099;28;45339;-69
2022/03/18 09:04:17;;;;;;;;;28.00;24.00;;;;;12.90;44.59;103638.09;5019560;28;45455;-69
2022/03/18 09:06:42;;;;;;;;;26.33;21.33;;;;;13.13;44.35;103634.88;5024210;28;46520;-69
2022/03/18 09:09:07;;;;;;;;;15.33;13.00;;;;;13.45;44.52;103641.03;5021124;28;45431;-68
2022/03/18 09:11:33;;;;;;;;;24.33;21.67;;;;;13.57;42.20;103642.13;5020870;28;45437;-69
2022/03/18 09:13:58;;;;;;;;;18.33;16.67;;;;;13.56;42.92;103637.63;5023368;28;45443;-69
2022/03/18 09:16:23;;;;;;;;;17.00;14.67;;;;;13.66;41.14;103635.19;5014844;28;48244;-68
2022/03/18 09:18:49;;;;;;;;;21.00;19.33;;;;;13.75;41.65;103640.06;5031278;28;45968;-69
2022/03/18 09:21:14;;;;;;;;;22.67;19.33;;;;;13.61;40.74;103630.00;5021115;28;45319;-68
2022/03/18 09:23:41;;;;;;;;;15.67;14.33;;;;;13.26;41.95;103634.97;5023279;28;45437;-67
2022/03/18 09:26:07;;;;;;;;;22.00;20.33;;;;;13.00;41.84;103642.03;5023355;28;46280;-67
2022/03/18 09:28:32;;;;;;;;;17.00;15.67;;;;;13.45;41.87;103634.69;5023742;28;45392;-67
2022/03/18 09:30:57;;;;;;;;;23.00;18.33;;;;;13.74;40.22;103633.72;5014689;28;45581;-66
2022/03/18 09:33:23;;;;;;;;;18.33;15.67;;;;;14.12;41.57;103635.78;5025351;28;45338;-67
2022/03/18 09:35:48;;;;;;;;;21.00;18.00;;;;;14.54;39.67;103627.47;5014111;28;45642;-67
2022/03/18 09:38:14;;;;;;;;;18.33;15.00;;;;;14.74;38.28;103629.75;5024454;28;45289;-67
2022/03/18 09:40:41;;;;;;;;;15.67;15.00;;;;;14.55;38.51;103633.81;5015573;28;45438;-67
2022/03/18 09:43:09;;;;;;;;;18.67;15.67;;;;;14.74;35.88;103624.28;5024905;28;45536;-67
2022/03/18 09:45:37;;;;;;;;;15.67;13.67;;;;;15.04;35.05;103642.28;5017985;28;46630;-67
2022/03/18 09:48:07;;;;;;;;;14.33;11.67;;;;;15.21;36.00;103636.50;5036060;28;45476;-66
2022/03/18 09:50:33;;;;;;;;;14.00;12.67;;;;;15.39;34.96;103632.47;5013237;28;45227;-67
2022/03/18 09:52:59;;;;;;;;;17.00;13.33;;;;;15.49;33.56;103639.00;5013895;28;45579;-67
2022/03/18 09:55:25;;;;;;;;;13.67;12.67;;;;;15.68;32.66;103637.72;5012413;28;47148;-67
2022/03/18 09:57:54;;;;;;;;;11.67;10.00;;;;;15.73;32.87;103619.06;5021753;28;45429;-68
2022/03/18 10:00:19;;;;;;;;;15.33;10.00;;;;;15.80;32.64;103631.34;5018061;28;45378;-68
2022/03/18 10:02:44;;;;;;;;;16.33;11.00;;;;;15.51;31.32;103630.69;5024540;28;45303;-68
2022/03/18 10:05:16;;;;;;;;;16.67;11.00;;;;;15.54;32.13;103634.13;5020761;28;45473;-68
2022/03/18 10:07:53;;;;;;;;;21.67;16.00;;;;;15.18;31.62;103633.97;5024111;28;45375;-66
2022/03/18 10:10:20;;;;;;;;;13.67;12.33;;;;;15.43;31.42;103628.50;5020817;28;45399;-68
2022/03/18 10:12:51;;;;;;;;;15.00;15.00;;;;;15.42;31.82;103640.44;5020242;28;45307;-68
2022/03/18 10:15:26;;;;;;;;;19.33;15.33;;;;;15.75;32.41;103639.91;5019144;28;46381;-68
2022/03/18 10:17:54;;;;;;;;;17.33;13.33;;;;;15.93;31.37;103632.19;5019645;28;45319;-68
2022/03/18 10:20:34;;;;;;;;;16.67;14.33;;;;;15.55;30.80;103638.63;5012138;28;45399;-67
2022/03/18 10:23:20;;;;;;;;;12.67;11.67;;;;;15.44;31.06;103635.72;5022263;28;45422;-67
2022/03/18 10:25:53;;;;;;;;;8.00;7.33;;;;;15.83;30.59;103636.59;5019748;28;45809;-67
2022/03/18 10:28:46;;;;;;;;;17.33;14.33;;;;;15.90;30.49;103615.97;5022102;28;45696;-67
2022/03/18 10:31:21;;;;;;;;;18.33;12.00;;;;;16.04;30.99;103621.31;5012805;28;45295;-67
2022/03/18 10:39:28;;;;;;;;;12.67;12.67;;;;;15.83;29.33;103598.22;5020706;28;45387;-66
2022/03/18 10:41:54;;;;;;;;;25.67;13.33;;;;;15.88;30.22;103613.34;5016834;28;45618;-66
2022/03/18 10:44:20;;;;;;;;;13.33;9.00;;;;;16.26;30.96;103596.75;5018526;28;45644;-66
2022/03/18 10:46:48;;;;;;;;;16.33;12.67;;;;;16.57;31.08;103598.03;5016853;28;46860;-67
2022/03/18 10:49:13;;;;;;;;;13.67;12.00;;;;;16.60;30.85;103597.81;5018136;28;45520;-67
2022/03/18 10:51:39;;;;;;;;;16.33;15.33;;;;;16.85;29.69;103595.91;5020963;28;46491;-67
2022/03/18 10:54:04;;;;;;;;;14.00;11.67;;;;;17.02;29.91;103598.22;5019969;28;45458;-68
2022/03/18 10:56:56;;;;;;;;;11.67;9.67;;;;;17.26;30.89;103595.38;5015264;28;47186;-68
2022/03/18 10:59:26;;;;;;;;;13.00;9.33;;;;;17.39;28.15;103596.13;5018305;28;45416;-67
2022/03/18 11:01:52;;;;;;;;;15.67;14.33;;;;;17.44;27.85;103593.91;5022849;28;45331;-67
2022/03/18 11:04:18;;;;;;;;;13.00;13.00;;;;;17.41;26.82;103602.38;5032330;28;45481;-68
2022/03/18 11:07:29;;;;;;;;;15.33;12.67;;;;;17.39;26.44;103601.63;5022920;28;46740;-68
2022/03/18 11:11:06;;;;;;;;;12.00;11.00;;;;;17.26;26.30;103604.47;5017526;28;45445;-68
2022/03/18 11:12:21;;;;;;;;;18.67;14.33;;;;;17.25;27.08;103596.34;5017473;28;45353;-68
2022/03/18 11:14:52;;;;;;;;;12.67;12.67;;;;;17.56;28.22;103601.13;5019251;28;47680;-69
2022/03/18 11:17:19;;;;;;;;;11.33;11.00;;;;;17.72;26.98;103590.66;5014058;28;46247;-68
2022/03/18 11:19:46;;;;;;;;;14.33;11.00;;;;;17.79;26.57;103591.91;5018785;28;45487;-67
2022/03/18 11:22:14;;;;;;;;;14.00;10.00;;;;;17.67;24.87;103581.94;5023407;28;45328;-67
2022/03/18 11:24:41;;;;;;;;;11.67;11.00;;;;;17.63;24.32;103607.91;5019020;28;45376;-67
2022/03/18 11:27:06;;;;;;;;;6.67;3.67;;;;;17.50;23.87;103590.66;5012397;28;47334;-66
2022/03/18 11:29:34;;;;;;;;;7.00;7.00;;;;;17.34;24.58;103590.13;5019759;28;45491;-66
2022/03/18 11:32:20;;;;;;;;;7.00;6.67;;;;;17.25;23.12;103591.75;5016271;28;45368;-66